Pagrindinis puslapis
METAR-TAF:

METAR-TAF

Oro uostai :

Whitecourt, Alberta, Kanada

platuma: 54-09N, ilguma: 115-47W, Aukštis: 783 m

Dabartinis oras

Ataskaita buvo paskelbta 7 valandos ir 58 minutes, ne 05:00 UTC
Ramus vėjas
Temperatūra -18°C
Drėgmė 84%
Slėgis 1024 hPa
Matomumas: 24.1 km
Mažai debesys ne aukštis 7000 ft
Išsisklaidę debesys ne aukštis 21000 ft

METAR: CYZU 190500Z 00000KT 15SM FEW070 SCT210 M18/M20 A3025 RMK AC2CI2 LAST STFD OBS/ NXT 191300Z SLP325

Laikas: 05:58 (12:58 UTC)

Prognozė

Ataskaita buvo paskelbta 18 valandos ir 20 minutes, ne 18:38 UTC
Prognozė galioja nuo 18 metu 19 UTC su 18 metu 23 UTC
Vėjas 5 kt iš Pietryčių
Matomumas: 10 km
Giedras dangus

TAF: CYZU 181838Z 1819/1823 13005KT P6SM SKC RMK NXT FCST WILL BE ISSUED AT 191415Z

Orai ataskaitas ir orų prognozės (METAR, TAF).

turimą stotys yra geltonos ir raudonos taškus žemėlapyje.

Perkelti pele per norėdami pamatyti stoties vardą.

Tada spustelėkite, norėdami matyti oro stebėjimo ir prognozės.

Norėdami pakeisti žemėlapį: spustelėkite ant žalios mygtukų su juodo kryžiaus žemyn,; žalią mygtuką su brūkšneliu, jei norite nutolinti; arba žalių rodyklių gretimoms žemėlapius.


METAR-TAF: